Christiana, Alabama
Current Conditions -  °F | °C
As of 9:53 AM on Wednesday 22 Oct 2014 (Local Time) from KANB Reporting Station
Clear Clear  
Wind Chill: 58°   Ceiling: Unl
Heat Index: 58°   Visibility: 10mi
Dew Point: 41°   Wind: 12mph
Humidity: 53%   Direction: 30°NNE
Pressure: 30.15"   Gusts: NA
Location:  33.4483°N, 85.6826°W
Report Text: KANB 221453Z AUTO 03010KT 10SM CLR 14/05 A3015 RMK AO2 SLP212 T01440050 51007
Loading
Personal Weather Stations






























Interactive Weather Map
Tropical Storm Tracking
New forecast layout! Learn more

10-Day Weather Forecast

Advertisements
Track Severe Weather on mobile